sensor_id;sensor_type;location;lat;lon;timestamp;P1;durP1;ratioP1;P2;durP2;ratioP2
20531;SDS011;10424;52.102;8.084;2023-02-28T00:00:08;8.90;;;5.10;;
20531;SDS011;10424;52.102;8.084;2023-02-28T00:02:36;12.37;;;6.33;;
20531;SDS011;10424;52.102;8.084;2023-02-28T00:05:04;11.00;;;5.70;;
20531;SDS011;10424;52.102;8.084;2023-02-28T00:07:32;12.43;;;7.47;;
20531;SDS011;10424;52.102;8.084;2023-02-28T00:09:59;11.30;;;6.30;;
20531;SDS011;10424;52.102;8.084;2023-02-28T00:12:28;13.13;;;5.67;;
20531;SDS011;10424;52.102;8.084;2023-02-28T00:14:55;6.70;;;4.30;;
20531;SDS011;10424;52.102;8.084;2023-02-28T00:17:22;7.10;;;3.60;;
20531;SDS011;10424;52.102;8.084;2023-02-28T00:19:50;8.80;;;4.30;;
20531;SDS011;10424;52.102;8.084;2023-02-28T00:22:18;6.23;;;4.10;;
20531;SDS011;10424;52.102;8.084;2023-02-28T00:24:46;6.33;;;3.40;;
20531;SDS011;10424;52.102;8.084;2023-02-28T00:27:13;6.63;;;3.73;;
20531;SDS011;10424;52.102;8.084;2023-02-28T00:29:42;7.30;;;3.30;;
20531;SDS011;10424;52.102;8.084;2023-02-28T00:32:09;8.10;;;3.57;;
20531;SDS011;10424;52.102;8.084;2023-02-28T00:34:36;8.97;;;3.83;;
20531;SDS011;10424;52.102;8.084;2023-02-28T00:37:04;5.07;;;3.23;;
20531;SDS011;10424;52.102;8.084;2023-02-28T00:39:33;5.90;;;2.97;;
20531;SDS011;10424;52.102;8.084;2023-02-28T00:42:00;4.27;;;3.03;;
20531;SDS011;10424;52.102;8.084;2023-02-28T00:44:27;4.60;;;2.83;;
20531;SDS011;10424;52.102;8.084;2023-02-28T00:46:56;5.50;;;3.20;;
20531;SDS011;10424;52.102;8.084;2023-02-28T00:49:24;6.73;;;3.10;;
20531;SDS011;10424;52.102;8.084;2023-02-28T00:51:51;6.50;;;3.07;;
20531;SDS011;10424;52.102;8.084;2023-02-28T00:54:19;6.37;;;3.20;;
20531;SDS011;10424;52.102;8.084;2023-02-28T00:56:46;7.17;;;3.27;;
20531;SDS011;10424;52.102;8.084;2023-02-28T00:59:14;5.67;;;3.30;;
20531;SDS011;10424;52.102;8.084;2023-02-28T01:01:42;8.67;;;3.20;;
20531;SDS011;10424;52.102;8.084;2023-02-28T01:04:11;6.03;;;3.13;;
20531;SDS011;10424;52.102;8.084;2023-02-28T01:06:38;6.17;;;3.40;;
20531;SDS011;10424;52.102;8.084;2023-02-28T01:09:06;4.93;;;2.83;;
20531;SDS011;10424;52.102;8.084;2023-02-28T01:11:34;4.70;;;2.87;;
20531;SDS011;10424;52.102;8.084;2023-02-28T01:14:01;6.87;;;3.10;;
20531;SDS011;10424;52.102;8.084;2023-02-28T01:16:29;5.07;;;2.77;;
20531;SDS011;10424;52.102;8.084;2023-02-28T01:18:57;4.33;;;3.00;;
20531;SDS011;10424;52.102;8.084;2023-02-28T01:21:26;6.60;;;3.23;;
20531;SDS011;10424;52.102;8.084;2023-02-28T01:23:55;6.10;;;3.10;;
20531;SDS011;10424;52.102;8.084;2023-02-28T01:26:23;6.73;;;2.90;;
20531;SDS011;10424;52.102;8.084;2023-02-28T01:28:51;6.17;;;3.30;;
20531;SDS011;10424;52.102;8.084;2023-02-28T01:31:19;6.87;;;3.23;;
20531;SDS011;10424;52.102;8.084;2023-02-28T01:33:46;4.90;;;2.60;;
20531;SDS011;10424;52.102;8.084;2023-02-28T01:36:15;5.23;;;2.90;;
20531;SDS011;10424;52.102;8.084;2023-02-28T01:38:44;6.67;;;3.17;;
20531;SDS011;10424;52.102;8.084;2023-02-28T01:41:14;4.57;;;2.77;;
20531;SDS011;10424;52.102;8.084;2023-02-28T01:43:52;4.83;;;2.90;;
20531;SDS011;10424;52.102;8.084;2023-02-28T01:46:20;5.23;;;2.73;;
20531;SDS011;10424;52.102;8.084;2023-02-28T01:48:49;5.37;;;2.80;;
20531;SDS011;10424;52.102;8.084;2023-02-28T01:51:17;4.80;;;2.73;;
20531;SDS011;10424;52.102;8.084;2023-02-28T01:53:47;5.10;;;2.43;;
20531;SDS011;10424;52.102;8.084;2023-02-28T01:56:16;6.67;;;2.80;;
20531;SDS011;10424;52.102;8.084;2023-02-28T01:58:45;4.27;;;2.80;;
20531;SDS011;10424;52.102;8.084;2023-02-28T02:01:13;4.40;;;2.60;;
20531;SDS011;10424;52.102;8.084;2023-02-28T02:03:46;5.67;;;2.50;;
20531;SDS011;10424;52.102;8.084;2023-02-28T02:06:13;4.03;;;2.60;;
20531;SDS011;10424;52.102;8.084;2023-02-28T02:08:40;5.77;;;2.60;;
20531;SDS011;10424;52.102;8.084;2023-02-28T02:11:16;4.23;;;2.47;;
20531;SDS011;10424;52.102;8.084;2023-02-28T02:13:49;4.60;;;2.37;;
20531;SDS011;10424;52.102;8.084;2023-02-28T02:16:23;4.00;;;2.17;;
20531;SDS011;10424;52.102;8.084;2023-02-28T02:18:57;4.60;;;2.03;;
20531;SDS011;10424;52.102;8.084;2023-02-28T02:21:41;5.80;;;1.97;;
20531;SDS011;10424;52.102;8.084;2023-02-28T02:27:10;4.13;;;2.27;;
20531;SDS011;10424;52.102;8.084;2023-02-28T02:29:48;3.73;;;2.20;;
20531;SDS011;10424;52.102;8.084;2023-02-28T02:32:40;3.07;;;2.10;;
20531;SDS011;10424;52.102;8.084;2023-02-28T02:35:13;3.13;;;2.20;;
20531;SDS011;10424;52.102;8.084;2023-02-28T02:37:43;4.27;;;2.27;;
20531;SDS011;10424;52.102;8.084;2023-02-28T02:40:13;3.30;;;2.00;;
20531;SDS011;10424;52.102;8.084;2023-02-28T02:42:43;4.53;;;2.37;;
20531;SDS011;10424;52.102;8.084;2023-02-28T02:45:12;3.90;;;2.00;;
20531;SDS011;10424;52.102;8.084;2023-02-28T02:47:41;3.10;;;2.10;;
20531;SDS011;10424;52.102;8.084;2023-02-28T02:50:11;5.30;;;2.20;;
20531;SDS011;10424;52.102;8.084;2023-02-28T02:52:42;3.80;;;2.50;;
20531;SDS011;10424;52.102;8.084;2023-02-28T02:55:11;3.63;;;2.20;;
20531;SDS011;10424;52.102;8.084;2023-02-28T02:57:40;3.43;;;2.10;;
20531;SDS011;10424;52.102;8.084;2023-02-28T03:00:11;3.10;;;2.07;;
20531;SDS011;10424;52.102;8.084;2023-02-28T03:02:40;4.30;;;2.40;;
20531;SDS011;10424;52.102;8.084;2023-02-28T03:05:08;4.83;;;2.60;;
20531;SDS011;10424;52.102;8.084;2023-02-28T03:07:39;4.83;;;2.40;;
20531;SDS011;10424;52.102;8.084;2023-02-28T03:12:51;4.40;;;2.50;;
20531;SDS011;10424;52.102;8.084;2023-02-28T03:15:20;4.43;;;2.70;;
20531;SDS011;10424;52.102;8.084;2023-02-28T03:17:55;4.13;;;2.37;;
20531;SDS011;10424;52.102;8.084;2023-02-28T03:20:27;2.97;;;2.30;;
20531;SDS011;10424;52.102;8.084;2023-02-28T03:23:01;4.63;;;2.50;;
20531;SDS011;10424;52.102;8.084;2023-02-28T03:25:32;4.00;;;2.50;;
20531;SDS011;10424;52.102;8.084;2023-02-28T03:28:02;4.97;;;2.63;;
20531;SDS011;10424;52.102;8.084;2023-02-28T03:30:36;4.80;;;2.77;;
20531;SDS011;10424;52.102;8.084;2023-02-28T03:33:07;6.97;;;3.03;;
20531;SDS011;10424;52.102;8.084;2023-02-28T03:35:36;3.90;;;2.40;;
20531;SDS011;10424;52.102;8.084;2023-02-28T03:38:05;3.60;;;2.50;;
20531;SDS011;10424;52.102;8.084;2023-02-28T03:40:34;6.70;;;3.00;;
20531;SDS011;10424;52.102;8.084;2023-02-28T03:43:07;4.90;;;2.80;;
20531;SDS011;10424;52.102;8.084;2023-02-28T03:45:37;4.53;;;2.63;;
20531;SDS011;10424;52.102;8.084;2023-02-28T03:48:06;4.20;;;2.70;;
20531;SDS011;10424;52.102;8.084;2023-02-28T03:50:36;4.77;;;2.43;;
20531;SDS011;10424;52.102;8.084;2023-02-28T03:53:04;3.30;;;2.43;;
20531;SDS011;10424;52.102;8.084;2023-02-28T03:55:34;3.60;;;2.30;;
20531;SDS011;10424;52.102;8.084;2023-02-28T03:58:07;4.07;;;2.30;;
20531;SDS011;10424;52.102;8.084;2023-02-28T04:00:38;3.13;;;2.13;;
20531;SDS011;10424;52.102;8.084;2023-02-28T04:03:07;3.70;;;2.40;;
20531;SDS011;10424;52.102;8.084;2023-02-28T04:05:38;4.97;;;2.10;;
20531;SDS011;10424;52.102;8.084;2023-02-28T04:08:10;3.83;;;2.37;;
20531;SDS011;10424;52.102;8.084;2023-02-28T04:10:38;3.30;;;2.00;;
20531;SDS011;10424;52.102;8.084;2023-02-28T04:13:07;3.67;;;2.30;;
20531;SDS011;10424;52.102;8.084;2023-02-28T04:15:34;3.40;;;2.40;;
20531;SDS011;10424;52.102;8.084;2023-02-28T04:18:01;3.40;;;2.30;;
20531;SDS011;10424;52.102;8.084;2023-02-28T04:20:29;4.27;;;2.33;;
20531;SDS011;10424;52.102;8.084;2023-02-28T04:22:56;3.33;;;2.30;;
20531;SDS011;10424;52.102;8.084;2023-02-28T04:25:23;3.37;;;2.30;;
20531;SDS011;10424;52.102;8.084;2023-02-28T04:27:50;3.77;;;2.30;;
20531;SDS011;10424;52.102;8.084;2023-02-28T04:30:19;3.20;;;2.40;;
20531;SDS011;10424;52.102;8.084;2023-02-28T04:32:47;4.63;;;2.40;;
20531;SDS011;10424;52.102;8.084;2023-02-28T04:35:14;5.37;;;2.53;;
20531;SDS011;10424;52.102;8.084;2023-02-28T04:37:41;5.10;;;2.80;;
20531;SDS011;10424;52.102;8.084;2023-02-28T04:40:09;4.93;;;2.70;;
20531;SDS011;10424;52.102;8.084;2023-02-28T04:42:36;3.93;;;2.60;;
20531;SDS011;10424;52.102;8.084;2023-02-28T04:45:04;4.13;;;2.37;;
20531;SDS011;10424;52.102;8.084;2023-02-28T04:47:33;4.17;;;2.53;;
20531;SDS011;10424;52.102;8.084;2023-02-28T04:50:00;5.03;;;2.60;;
20531;SDS011;10424;52.102;8.084;2023-02-28T04:52:28;3.50;;;2.40;;
20531;SDS011;10424;52.102;8.084;2023-02-28T04:54:56;4.30;;;2.50;;
20531;SDS011;10424;52.102;8.084;2023-02-28T04:57:23;4.70;;;2.80;;
20531;SDS011;10424;52.102;8.084;2023-02-28T04:59:50;3.07;;;2.50;;
20531;SDS011;10424;52.102;8.084;2023-02-28T05:02:17;3.90;;;2.67;;
20531;SDS011;10424;52.102;8.084;2023-02-28T05:04:47;4.17;;;2.40;;
20531;SDS011;10424;52.102;8.084;2023-02-28T05:07:14;4.40;;;2.60;;
20531;SDS011;10424;52.102;8.084;2023-02-28T05:09:42;3.23;;;2.40;;
20531;SDS011;10424;52.102;8.084;2023-02-28T05:12:09;3.87;;;2.50;;
20531;SDS011;10424;52.102;8.084;2023-02-28T05:14:36;3.87;;;2.43;;
20531;SDS011;10424;52.102;8.084;2023-02-28T05:17:03;4.20;;;2.53;;
20531;SDS011;10424;52.102;8.084;2023-02-28T05:19:30;3.33;;;2.17;;
20531;SDS011;10424;52.102;8.084;2023-02-28T05:21:59;3.97;;;2.40;;
20531;SDS011;10424;52.102;8.084;2023-02-28T05:24:27;5.30;;;2.30;;
20531;SDS011;10424;52.102;8.084;2023-02-28T05:26:54;4.03;;;2.40;;
20531;SDS011;10424;52.102;8.084;2023-02-28T05:29:22;3.97;;;2.50;;
20531;SDS011;10424;52.102;8.084;2023-02-28T05:31:49;3.10;;;2.30;;
20531;SDS011;10424;52.102;8.084;2023-02-28T05:34:16;14.00;;;5.30;;
20531;SDS011;10424;52.102;8.084;2023-02-28T05:36:44;19.23;;;8.77;;
20531;SDS011;10424;52.102;8.084;2023-02-28T05:39:12;20.60;;;9.10;;
20531;SDS011;10424;52.102;8.084;2023-02-28T05:41:40;12.80;;;6.27;;
20531;SDS011;10424;52.102;8.084;2023-02-28T05:44:07;12.73;;;5.63;;
20531;SDS011;10424;52.102;8.084;2023-02-28T05:46:35;6.33;;;3.60;;
20531;SDS011;10424;52.102;8.084;2023-02-28T05:49:02;5.53;;;3.30;;
20531;SDS011;10424;52.102;8.084;2023-02-28T05:51:30;4.43;;;2.60;;
20531;SDS011;10424;52.102;8.084;2023-02-28T05:53:59;2.87;;;2.43;;
20531;SDS011;10424;52.102;8.084;2023-02-28T05:56:28;5.40;;;2.83;;
20531;SDS011;10424;52.102;8.084;2023-02-28T05:58:56;4.73;;;2.50;;
20531;SDS011;10424;52.102;8.084;2023-02-28T06:01:24;7.03;;;2.80;;
20531;SDS011;10424;52.102;8.084;2023-02-28T06:03:53;6.60;;;3.53;;
20531;SDS011;10424;52.102;8.084;2023-02-28T06:06:20;8.03;;;3.73;;
20531;SDS011;10424;52.102;8.084;2023-02-28T06:08:47;8.80;;;4.20;;
20531;SDS011;10424;52.102;8.084;2023-02-28T06:11:15;9.97;;;4.03;;
20531;SDS011;10424;52.102;8.084;2023-02-28T06:13:43;7.43;;;3.60;;
20531;SDS011;10424;52.102;8.084;2023-02-28T06:16:11;6.30;;;3.60;;
20531;SDS011;10424;52.102;8.084;2023-02-28T06:18:38;7.17;;;3.20;;
20531;SDS011;10424;52.102;8.084;2023-02-28T06:21:06;5.57;;;3.40;;
20531;SDS011;10424;52.102;8.084;2023-02-28T06:23:33;5.10;;;3.37;;
20531;SDS011;10424;52.102;8.084;2023-02-28T06:26:01;6.53;;;3.20;;
20531;SDS011;10424;52.102;8.084;2023-02-28T06:28:28;6.07;;;3.23;;
20531;SDS011;10424;52.102;8.084;2023-02-28T06:30:57;7.67;;;2.80;;
20531;SDS011;10424;52.102;8.084;2023-02-28T06:33:24;11.17;;;2.97;;
20531;SDS011;10424;52.102;8.084;2023-02-28T06:35:52;4.90;;;2.93;;
20531;SDS011;10424;52.102;8.084;2023-02-28T06:38:20;5.43;;;2.40;;
20531;SDS011;10424;52.102;8.084;2023-02-28T06:40:52;6.10;;;2.93;;
20531;SDS011;10424;52.102;8.084;2023-02-28T06:43:20;4.73;;;2.70;;
20531;SDS011;10424;52.102;8.084;2023-02-28T06:45:47;5.50;;;2.80;;
20531;SDS011;10424;52.102;8.084;2023-02-28T06:48:16;6.17;;;2.60;;
20531;SDS011;10424;52.102;8.084;2023-02-28T06:50:44;4.93;;;2.97;;
20531;SDS011;10424;52.102;8.084;2023-02-28T06:53:11;4.30;;;3.00;;
20531;SDS011;10424;52.102;8.084;2023-02-28T06:55:39;7.60;;;3.00;;
20531;SDS011;10424;52.102;8.084;2023-02-28T06:58:07;4.87;;;2.77;;
20531;SDS011;10424;52.102;8.084;2023-02-28T07:00:39;4.33;;;2.73;;
20531;SDS011;10424;52.102;8.084;2023-02-28T07:03:07;3.80;;;2.30;;
20531;SDS011;10424;52.102;8.084;2023-02-28T07:05:36;3.37;;;2.47;;
20531;SDS011;10424;52.102;8.084;2023-02-28T07:08:04;5.90;;;3.20;;
20531;SDS011;10424;52.102;8.084;2023-02-28T07:10:31;5.70;;;2.70;;
20531;SDS011;10424;52.102;8.084;2023-02-28T07:12:59;4.40;;;2.60;;
20531;SDS011;10424;52.102;8.084;2023-02-28T07:15:26;3.87;;;2.80;;
20531;SDS011;10424;52.102;8.084;2023-02-28T07:17:53;5.47;;;2.50;;
20531;SDS011;10424;52.102;8.084;2023-02-28T07:20:21;2.83;;;2.17;;
20531;SDS011;10424;52.102;8.084;2023-02-28T07:22:50;2.50;;;2.10;;
20531;SDS011;10424;52.102;8.084;2023-02-28T07:25:21;3.40;;;2.20;;
20531;SDS011;10424;52.102;8.084;2023-02-28T07:27:48;5.07;;;2.20;;
20531;SDS011;10424;52.102;8.084;2023-02-28T07:30:16;3.40;;;2.00;;
20531;SDS011;10424;52.102;8.084;2023-02-28T07:32:43;3.00;;;2.00;;
20531;SDS011;10424;52.102;8.084;2023-02-28T07:35:11;5.20;;;2.10;;
20531;SDS011;10424;52.102;8.084;2023-02-28T07:37:40;3.30;;;2.10;;
20531;SDS011;10424;52.102;8.084;2023-02-28T07:40:09;2.97;;;2.15;;
20531;SDS011;10424;52.102;8.084;2023-02-28T07:42:37;4.10;;;2.20;;
20531;SDS011;10424;52.102;8.084;2023-02-28T07:45:05;3.63;;;2.00;;
20531;SDS011;10424;52.102;8.084;2023-02-28T07:47:33;2.95;;;2.17;;
20531;SDS011;10424;52.102;8.084;2023-02-28T07:50:00;5.13;;;2.20;;
20531;SDS011;10424;52.102;8.084;2023-02-28T07:52:28;3.60;;;2.08;;
20531;SDS011;10424;52.102;8.084;2023-02-28T07:54:55;4.95;;;1.70;;
20531;SDS011;10424;52.102;8.084;2023-02-28T07:57:24;2.33;;;1.80;;
20531;SDS011;10424;52.102;8.084;2023-02-28T07:59:51;2.78;;;1.67;;
20531;SDS011;10424;52.102;8.084;2023-02-28T08:02:18;2.05;;;1.63;;
20531;SDS011;10424;52.102;8.084;2023-02-28T08:04:45;2.88;;;1.63;;
20531;SDS011;10424;52.102;8.084;2023-02-28T08:07:13;3.90;;;1.80;;
20531;SDS011;10424;52.102;8.084;2023-02-28T08:09:41;3.92;;;1.83;;
20531;SDS011;10424;52.102;8.084;2023-02-28T08:12:09;2.97;;;1.75;;
20531;SDS011;10424;52.102;8.084;2023-02-28T08:14:37;5.80;;;1.95;;
20531;SDS011;10424;52.102;8.084;2023-02-28T08:17:05;4.75;;;2.00;;
20531;SDS011;10424;52.102;8.084;2023-02-28T08:19:33;2.28;;;1.58;;
20531;SDS011;10424;52.102;8.084;2023-02-28T08:22:00;2.45;;;1.25;;
20531;SDS011;10424;52.102;8.084;2023-02-28T08:24:27;1.80;;;1.00;;
20531;SDS011;10424;52.102;8.084;2023-02-28T08:26:55;2.67;;;1.00;;
20531;SDS011;10424;52.102;8.084;2023-02-28T08:29:23;3.05;;;1.48;;
20531;SDS011;10424;52.102;8.084;2023-02-28T08:31:51;2.05;;;1.10;;
20531;SDS011;10424;52.102;8.084;2023-02-28T08:34:18;2.75;;;1.25;;
20531;SDS011;10424;52.102;8.084;2023-02-28T08:36:49;2.00;;;1.30;;
20531;SDS011;10424;52.102;8.084;2023-02-28T08:39:16;3.58;;;1.20;;
20531;SDS011;10424;52.102;8.084;2023-02-28T08:41:45;2.35;;;1.40;;
20531;SDS011;10424;52.102;8.084;2023-02-28T08:44:12;2.05;;;1.40;;
20531;SDS011;10424;52.102;8.084;2023-02-28T08:46:39;1.70;;;1.10;;
20531;SDS011;10424;52.102;8.084;2023-02-28T08:49:09;3.13;;;1.30;;
20531;SDS011;10424;52.102;8.084;2023-02-28T08:51:38;1.52;;;1.20;;
20531;SDS011;10424;52.102;8.084;2023-02-28T08:54:05;2.28;;;1.05;;
20531;SDS011;10424;52.102;8.084;2023-02-28T08:56:33;1.90;;;1.30;;
20531;SDS011;10424;52.102;8.084;2023-02-28T08:59:01;2.90;;;1.15;;
20531;SDS011;10424;52.102;8.084;2023-02-28T09:01:29;2.95;;;1.20;;
20531;SDS011;10424;52.102;8.084;2023-02-28T09:03:57;1.55;;;1.20;;
20531;SDS011;10424;52.102;8.084;2023-02-28T09:06:26;2.17;;;1.27;;
20531;SDS011;10424;52.102;8.084;2023-02-28T09:08:55;4.88;;;1.50;;
20531;SDS011;10424;52.102;8.084;2023-02-28T09:11:24;3.17;;;1.55;;
20531;SDS011;10424;52.102;8.084;2023-02-28T09:13:51;4.10;;;1.75;;
20531;SDS011;10424;52.102;8.084;2023-02-28T09:16:20;3.97;;;1.55;;
20531;SDS011;10424;52.102;8.084;2023-02-28T09:18:48;4.82;;;1.70;;
20531;SDS011;10424;52.102;8.084;2023-02-28T09:21:16;3.15;;;1.55;;
20531;SDS011;10424;52.102;8.084;2023-02-28T09:23:45;3.25;;;1.80;;
20531;SDS011;10424;52.102;8.084;2023-02-28T09:26:13;3.50;;;1.45;;
20531;SDS011;10424;52.102;8.084;2023-02-28T09:28:41;3.13;;;1.45;;
20531;SDS011;10424;52.102;8.084;2023-02-28T09:31:10;2.17;;;1.40;;
20531;SDS011;10424;52.102;8.084;2023-02-28T09:33:38;1.50;;;1.30;;
20531;SDS011;10424;52.102;8.084;2023-02-28T09:36:06;2.15;;;1.17;;
20531;SDS011;10424;52.102;8.084;2023-02-28T09:38:33;1.90;;;1.30;;
20531;SDS011;10424;52.102;8.084;2023-02-28T09:41:03;1.80;;;1.30;;
20531;SDS011;10424;52.102;8.084;2023-02-28T09:43:31;2.28;;;1.20;;
20531;SDS011;10424;52.102;8.084;2023-02-28T09:46:02;2.53;;;1.50;;
20531;SDS011;10424;52.102;8.084;2023-02-28T09:48:33;1.63;;;1.27;;
20531;SDS011;10424;52.102;8.084;2023-02-28T09:51:03;1.63;;;1.30;;
20531;SDS011;10424;52.102;8.084;2023-02-28T09:53:31;1.65;;;1.08;;
20531;SDS011;10424;52.102;8.084;2023-02-28T09:56:00;2.53;;;1.20;;
20531;SDS011;10424;52.102;8.084;2023-02-28T09:58:31;2.22;;;1.30;;
20531;SDS011;10424;52.102;8.084;2023-02-28T10:01:00;1.58;;;1.10;;
20531;SDS011;10424;52.102;8.084;2023-02-28T10:03:31;1.55;;;0.98;;
20531;SDS011;10424;52.102;8.084;2023-02-28T10:06:03;1.83;;;1.17;;
20531;SDS011;10424;52.102;8.084;2023-02-28T10:08:34;2.53;;;1.08;;
20531;SDS011;10424;52.102;8.084;2023-02-28T10:11:09;2.38;;;1.10;;
20531;SDS011;10424;52.102;8.084;2023-02-28T10:13:40;3.30;;;1.33;;
20531;SDS011;10424;52.102;8.084;2023-02-28T10:16:16;2.40;;;1.35;;
20531;SDS011;10424;52.102;8.084;2023-02-28T10:18:46;2.58;;;1.27;;
20531;SDS011;10424;52.102;8.084;2023-02-28T10:21:16;2.65;;;1.10;;
20531;SDS011;10424;52.102;8.084;2023-02-28T10:23:44;3.03;;;1.20;;
20531;SDS011;10424;52.102;8.084;2023-02-28T10:26:13;1.88;;;1.20;;
20531;SDS011;10424;52.102;8.084;2023-02-28T10:28:43;1.95;;;1.10;;
20531;SDS011;10424;52.102;8.084;2023-02-28T10:31:13;2.58;;;1.20;;
20531;SDS011;10424;52.102;8.084;2023-02-28T10:33:44;1.83;;;1.33;;
20531;SDS011;10424;52.102;8.084;2023-02-28T10:36:12;2.65;;;1.20;;
20531;SDS011;10424;52.102;8.084;2023-02-28T10:38:41;2.10;;;1.48;;
20531;SDS011;10424;52.102;8.084;2023-02-28T10:41:10;2.95;;;1.30;;
20531;SDS011;10424;52.102;8.084;2023-02-28T10:43:38;2.38;;;1.48;;
20531;SDS011;10424;52.102;8.084;2023-02-28T10:46:11;2.63;;;1.60;;
20531;SDS011;10424;52.102;8.084;2023-02-28T10:48:57;3.00;;;1.50;;
20531;SDS011;10424;52.102;8.084;2023-02-28T10:51:27;2.00;;;1.30;;
20531;SDS011;10424;52.102;8.084;2023-02-28T10:54:01;3.65;;;1.50;;
20531;SDS011;10424;52.102;8.084;2023-02-28T10:56:29;3.55;;;1.23;;
20531;SDS011;10424;52.102;8.084;2023-02-28T10:58:58;2.15;;;1.67;;
20531;SDS011;10424;52.102;8.084;2023-02-28T11:01:35;3.25;;;1.50;;
20531;SDS011;10424;52.102;8.084;2023-02-28T11:04:03;2.42;;;1.50;;
20531;SDS011;10424;52.102;8.084;2023-02-28T11:06:31;4.07;;;1.92;;
20531;SDS011;10424;52.102;8.084;2023-02-28T11:08:59;2.88;;;1.65;;
20531;SDS011;10424;52.102;8.084;2023-02-28T11:11:27;2.65;;;1.73;;
20531;SDS011;10424;52.102;8.084;2023-02-28T11:13:56;2.60;;;1.80;;
20531;SDS011;10424;52.102;8.084;2023-02-28T11:16:32;2.10;;;1.42;;
20531;SDS011;10424;52.102;8.084;2023-02-28T11:19:01;2.70;;;1.27;;
20531;SDS011;10424;52.102;8.084;2023-02-28T11:21:29;3.17;;;1.40;;
20531;SDS011;10424;52.102;8.084;2023-02-28T11:24:00;3.42;;;1.30;;
20531;SDS011;10424;52.102;8.084;2023-02-28T11:26:35;3.63;;;1.50;;
20531;SDS011;10424;52.102;8.084;2023-02-28T11:31:31;2.45;;;1.60;;
20531;SDS011;10424;52.102;8.084;2023-02-28T11:33:58;3.60;;;1.85;;
20531;SDS011;10424;52.102;8.084;2023-02-28T11:36:28;2.63;;;1.73;;
20531;SDS011;10424;52.102;8.084;2023-02-28T11:38:56;2.88;;;1.65;;
20531;SDS011;10424;52.102;8.084;2023-02-28T11:41:37;2.95;;;1.70;;
20531;SDS011;10424;52.102;8.084;2023-02-28T11:46:54;2.08;;;1.60;;
20531;SDS011;10424;52.102;8.084;2023-02-28T11:49:28;2.10;;;1.60;;
20531;SDS011;10424;52.102;8.084;2023-02-28T11:51:59;2.70;;;1.80;;
20531;SDS011;10424;52.102;8.084;2023-02-28T11:54:35;2.63;;;1.80;;
20531;SDS011;10424;52.102;8.084;2023-02-28T11:57:11;2.70;;;1.88;;
20531;SDS011;10424;52.102;8.084;2023-02-28T11:59:46;1.92;;;1.70;;
20531;SDS011;10424;52.102;8.084;2023-02-28T12:02:23;4.50;;;1.90;;
20531;SDS011;10424;52.102;8.084;2023-02-28T12:07:39;3.78;;;2.25;;
20531;SDS011;10424;52.102;8.084;2023-02-28T12:10:13;3.35;;;1.80;;
20531;SDS011;10424;52.102;8.084;2023-02-28T12:12:46;6.28;;;2.10;;
20531;SDS011;10424;52.102;8.084;2023-02-28T12:15:25;4.45;;;2.25;;
20531;SDS011;10424;52.102;8.084;2023-02-28T12:17:58;4.82;;;2.08;;
20531;SDS011;10424;52.102;8.084;2023-02-28T12:20:29;3.83;;;1.88;;
20531;SDS011;10424;52.102;8.084;2023-02-28T12:23:04;3.33;;;1.90;;
20531;SDS011;10424;52.102;8.084;2023-02-28T12:25:39;4.53;;;1.90;;
20531;SDS011;10424;52.102;8.084;2023-02-28T12:28:09;9.63;;;6.03;;
20531;SDS011;10424;52.102;8.084;2023-02-28T12:30:48;3.80;;;2.50;;
20531;SDS011;10424;52.102;8.084;2023-02-28T12:33:17;2.63;;;2.08;;
20531;SDS011;10424;52.102;8.084;2023-02-28T12:35:47;3.80;;;2.25;;
20531;SDS011;10424;52.102;8.084;2023-02-28T12:38:17;2.65;;;2.10;;
20531;SDS011;10424;52.102;8.084;2023-02-28T12:40:49;4.47;;;2.40;;
20531;SDS011;10424;52.102;8.084;2023-02-28T12:43:19;3.55;;;2.63;;
20531;SDS011;10424;52.102;8.084;2023-02-28T12:45:48;3.30;;;2.55;;
20531;SDS011;10424;52.102;8.084;2023-02-28T12:48:19;4.50;;;2.33;;
20531;SDS011;10424;52.102;8.084;2023-02-28T12:50:47;4.57;;;2.28;;
20531;SDS011;10424;52.102;8.084;2023-02-28T12:53:17;4.30;;;2.92;;
20531;SDS011;10424;52.102;8.084;2023-02-28T12:55:48;3.08;;;2.10;;
20531;SDS011;10424;52.102;8.084;2023-02-28T12:58:18;5.05;;;2.50;;
20531;SDS011;10424;52.102;8.084;2023-02-28T13:00:52;5.70;;;2.53;;
20531;SDS011;10424;52.102;8.084;2023-02-28T13:03:29;3.33;;;2.38;;
20531;SDS011;10424;52.102;8.084;2023-02-28T13:06:02;4.75;;;2.80;;
20531;SDS011;10424;52.102;8.084;2023-02-28T13:11:28;4.13;;;2.33;;
20531;SDS011;10424;52.102;8.084;2023-02-28T13:13:59;2.92;;;2.40;;
20531;SDS011;10424;52.102;8.084;2023-02-28T13:16:27;3.65;;;2.80;;
20531;SDS011;10424;52.102;8.084;2023-02-28T13:19:07;5.40;;;3.90;;
20531;SDS011;10424;52.102;8.084;2023-02-28T13:21:41;6.32;;;3.10;;
20531;SDS011;10424;52.102;8.084;2023-02-28T13:24:09;3.92;;;3.00;;
20531;SDS011;10424;52.102;8.084;2023-02-28T13:29:28;3.20;;;2.45;;
20531;SDS011;10424;52.102;8.084;2023-02-28T13:34:49;2.75;;;2.20;;
20531;SDS011;10424;52.102;8.084;2023-02-28T13:37:34;3.60;;;2.88;;
20531;SDS011;10424;52.102;8.084;2023-02-28T13:40:22;3.75;;;2.30;;
20531;SDS011;10424;52.102;8.084;2023-02-28T13:42:53;5.47;;;3.22;;
20531;SDS011;10424;52.102;8.084;2023-02-28T13:45:26;3.97;;;2.30;;
20531;SDS011;10424;52.102;8.084;2023-02-28T13:47:56;3.83;;;2.10;;
20531;SDS011;10424;52.102;8.084;2023-02-28T13:50:29;2.90;;;2.20;;
20531;SDS011;10424;52.102;8.084;2023-02-28T13:53:05;6.68;;;4.03;;
20531;SDS011;10424;52.102;8.084;2023-02-28T13:55:42;3.20;;;2.10;;
20531;SDS011;10424;52.102;8.084;2023-02-28T13:58:18;3.40;;;2.20;;
20531;SDS011;10424;52.102;8.084;2023-02-28T14:01:02;3.15;;;1.92;;
20531;SDS011;10424;52.102;8.084;2023-02-28T14:03:44;3.78;;;2.08;;
20531;SDS011;10424;52.102;8.084;2023-02-28T14:06:17;4.00;;;2.13;;
20531;SDS011;10424;52.102;8.084;2023-02-28T14:08:46;3.65;;;2.10;;
20531;SDS011;10424;52.102;8.084;2023-02-28T14:11:26;3.03;;;2.00;;
20531;SDS011;10424;52.102;8.084;2023-02-28T14:13:53;4.20;;;2.85;;
20531;SDS011;10424;52.102;8.084;2023-02-28T14:16:22;3.35;;;1.95;;
20531;SDS011;10424;52.102;8.084;2023-02-28T14:18:54;2.35;;;2.00;;
20531;SDS011;10424;52.102;8.084;2023-02-28T14:21:22;4.78;;;2.40;;
20531;SDS011;10424;52.102;8.084;2023-02-28T14:26:48;3.67;;;2.10;;
20531;SDS011;10424;52.102;8.084;2023-02-28T14:29:19;3.78;;;2.17;;
20531;SDS011;10424;52.102;8.084;2023-02-28T14:31:53;2.58;;;2.03;;
20531;SDS011;10424;52.102;8.084;2023-02-28T14:34:26;3.33;;;2.20;;
20531;SDS011;10424;52.102;8.084;2023-02-28T14:36:57;2.83;;;2.08;;
20531;SDS011;10424;52.102;8.084;2023-02-28T14:39:25;4.82;;;2.05;;
20531;SDS011;10424;52.102;8.084;2023-02-28T14:41:56;3.03;;;2.20;;
20531;SDS011;10424;52.102;8.084;2023-02-28T14:44:28;4.85;;;2.30;;
20531;SDS011;10424;52.102;8.084;2023-02-28T14:46:57;4.15;;;2.30;;
20531;SDS011;10424;52.102;8.084;2023-02-28T14:49:29;3.17;;;2.22;;
20531;SDS011;10424;52.102;8.084;2023-02-28T14:52:05;3.75;;;2.40;;
20531;SDS011;10424;52.102;8.084;2023-02-28T14:54:34;4.40;;;2.40;;
20531;SDS011;10424;52.102;8.084;2023-02-28T14:57:02;4.15;;;2.50;;
20531;SDS011;10424;52.102;8.084;2023-02-28T14:59:30;5.55;;;2.40;;
20531;SDS011;10424;52.102;8.084;2023-02-28T15:04:53;3.33;;;2.20;;
20531;SDS011;10424;52.102;8.084;2023-02-28T15:07:20;3.38;;;2.25;;
20531;SDS011;10424;52.102;8.084;2023-02-28T15:10:06;3.47;;;2.17;;
20531;SDS011;10424;52.102;8.084;2023-02-28T15:12:34;5.50;;;3.13;;
20531;SDS011;10424;52.102;8.084;2023-02-28T15:15:01;4.28;;;2.80;;
20531;SDS011;10424;52.102;8.084;2023-02-28T15:17:29;4.32;;;2.90;;
20531;SDS011;10424;52.102;8.084;2023-02-28T15:19:58;4.55;;;2.80;;
20531;SDS011;10424;52.102;8.084;2023-02-28T15:22:26;3.92;;;2.80;;
20531;SDS011;10424;52.102;8.084;2023-02-28T15:24:54;5.97;;;2.60;;
20531;SDS011;10424;52.102;8.084;2023-02-28T15:27:23;4.25;;;3.25;;
20531;SDS011;10424;52.102;8.084;2023-02-28T15:29:53;6.85;;;3.22;;